Terminal Aerodrome Forecast
Issued by NWS Boston, MA

Home | Current Version | Previous Version | Text Only | Print | Product List | Glossary On
Versions: 1 2 3 4 5 6 7 8 9 10 11 12 13 14 15 16 17 18 19 20 21 22 23 24 25 26 27 28 29 30 31 32 33 34 35 36 37 38 39 40 41 42 43 44
000
FTUS41 KBOX 260916 AAB
TAFBDL
TAF AMD
KBDL 260916Z 2609/2712 20003KT 1SM BR OVC002
      TEMPO 2610/2612 1/2SM FG OVC001
     FM261300 00000KT 2SM BR BKN003
     FM261500 VRB03KT P6SM SCT040
     FM270400 18004KT 5SM BR SCT040
     FM270800 00000KT 2SM BR BKN008=

USA.gov is the U.S. government's official web portal to all federal, state and local government web resources and services.